createdAt,value
2022-09-21T00:00:50.758Z,83
2022-09-21T00:02:50.724Z,83
2022-09-21T00:04:50.055Z,83
2022-09-21T00:06:50.202Z,83
2022-09-21T00:08:50.074Z,83
2022-09-21T00:10:50.856Z,83
2022-09-21T00:12:50.798Z,83
2022-09-21T00:14:50.589Z,83
2022-09-21T00:16:51.060Z,83
2022-09-21T00:18:50.939Z,83
2022-09-21T00:20:50.839Z,83
2022-09-21T00:22:50.822Z,83
2022-09-21T00:24:50.719Z,83
2022-09-21T00:26:50.929Z,83
2022-09-21T00:28:50.845Z,83
2022-09-21T00:30:50.600Z,83
2022-09-21T00:32:50.331Z,83
2022-09-21T00:34:50.703Z,83
2022-09-21T00:36:50.751Z,83
2022-09-21T00:38:50.498Z,83
2022-09-21T00:40:50.466Z,83
2022-09-21T00:42:50.237Z,83
2022-09-21T00:44:50.962Z,83
2022-09-21T00:46:50.318Z,83
2022-09-21T00:48:50.180Z,83
2022-09-21T00:50:50.117Z,83
2022-09-21T00:52:50.886Z,84
2022-09-21T00:54:50.711Z,83
2022-09-21T00:56:50.916Z,84
2022-09-21T00:58:50.672Z,84
2022-09-21T01:00:50.647Z,83
2022-09-21T01:02:50.668Z,84
2022-09-21T01:04:50.877Z,84
2022-09-21T01:06:50.026Z,84
2022-09-21T01:08:50.837Z,84
2022-09-21T01:10:50.679Z,84
2022-09-21T01:12:50.630Z,84
2022-09-21T01:14:50.575Z,84
2022-09-21T01:16:50.896Z,84
2022-09-21T01:18:50.862Z,84
2022-09-21T01:20:50.600Z,84
2022-09-21T01:22:50.517Z,84
2022-09-21T01:24:50.160Z,84
2022-09-21T01:26:50.449Z,84
2022-09-21T01:28:50.414Z,84
2022-09-21T01:30:50.305Z,84
2022-09-21T01:32:50.240Z,84
2022-09-21T01:34:50.756Z,84
2022-09-21T01:36:50.914Z,84
2022-09-21T01:38:50.749Z,84
2022-09-21T01:40:50.606Z,84
2022-09-21T01:42:50.385Z,84
2022-09-21T01:44:50.180Z,84
2022-09-21T01:46:50.207Z,85
2022-09-21T01:48:50.088Z,85
2022-09-21T01:50:50.791Z,85
2022-09-21T01:52:50.632Z,85
2022-09-21T01:54:50.505Z,85
2022-09-21T01:56:50.722Z,85
2022-09-21T01:58:50.543Z,85
2022-09-21T02:00:50.507Z,85
2022-09-21T02:02:50.273Z,85
2022-09-21T02:04:50.507Z,85
2022-09-21T02:06:50.735Z,85
2022-09-21T02:08:50.883Z,85
2022-09-21T02:10:50.639Z,85
2022-09-21T02:12:50.406Z,85
2022-09-21T02:14:50.143Z,85
2022-09-21T02:16:50.464Z,85
2022-09-21T02:18:50.369Z,85
2022-09-21T02:20:50.214Z,85
2022-09-21T02:22:50.653Z,85
2022-09-21T02:24:50.427Z,85
2022-09-21T02:26:50.484Z,85
2022-09-21T02:28:50.513Z,85
2022-09-21T02:30:50.421Z,85
2022-09-21T02:32:50.295Z,85
2022-09-21T02:34:50.579Z,85
2022-09-21T02:36:50.884Z,85
2022-09-21T02:38:50.635Z,85
2022-09-21T02:40:50.529Z,85
2022-09-21T02:42:50.427Z,85
2022-09-21T02:44:50.167Z,85
2022-09-21T02:46:50.743Z,85
2022-09-21T02:48:50.630Z,85
2022-09-21T02:50:50.362Z,85
2022-09-21T02:52:50.374Z,85
2022-09-21T02:54:50.244Z,85
2022-09-21T02:56:50.524Z,85
2022-09-21T02:58:50.247Z,85
2022-09-21T03:00:50.678Z,85
2022-09-21T03:02:50.688Z,85
2022-09-21T03:04:50.925Z,85
2022-09-21T03:06:50.066Z,86
2022-09-21T03:08:50.860Z,86
2022-09-21T03:10:51.045Z,86
2022-09-21T03:12:50.122Z,85
2022-09-21T03:14:50.173Z,85
2022-09-21T03:16:50.441Z,85
2022-09-21T03:18:50.266Z,86
2022-09-21T03:20:50.298Z,86
2022-09-21T03:22:50.146Z,86
2022-09-21T03:24:50.057Z,86
2022-09-21T03:26:50.116Z,86
2022-09-21T03:28:50.849Z,86
2022-09-21T03:30:51.104Z,86
2022-09-21T03:32:50.893Z,86
2022-09-21T03:34:50.389Z,86
2022-09-21T03:36:50.649Z,86
2022-09-21T03:38:50.818Z,86
2022-09-21T03:40:50.616Z,86
2022-09-21T03:42:50.404Z,86
2022-09-21T03:44:50.257Z,86
2022-09-21T03:46:50.332Z,86
2022-09-21T03:48:50.331Z,86
2022-09-21T03:50:50.104Z,86
2022-09-21T03:52:50.813Z,86
2022-09-21T03:54:50.700Z,86
2022-09-21T03:56:50.249Z,85
2022-09-21T03:58:50.365Z,85
2022-09-21T04:00:50.059Z,86
2022-09-21T04:02:51.222Z,86
2022-09-21T04:04:50.599Z,86
2022-09-21T04:06:50.937Z,86
2022-09-21T04:08:50.901Z,86
2022-09-21T04:10:50.551Z,85
2022-09-21T04:12:50.495Z,85
2022-09-21T04:14:50.454Z,85
2022-09-21T04:16:50.605Z,85
2022-09-21T04:18:50.476Z,85
2022-09-21T04:20:50.322Z,85
2022-09-21T04:22:50.183Z,85
2022-09-21T04:24:50.137Z,85
2022-09-21T04:26:50.384Z,86
2022-09-21T04:28:50.458Z,85
2022-09-21T04:30:50.584Z,86
2022-09-21T04:32:50.339Z,86
2022-09-21T04:34:50.812Z,85
2022-09-21T04:36:51.049Z,85
2022-09-21T04:38:50.805Z,85
2022-09-21T04:40:50.946Z,85
2022-09-21T04:42:50.841Z,85
2022-09-21T04:44:50.710Z,85
2022-09-21T04:46:50.817Z,85
2022-09-21T04:48:50.904Z,85
2022-09-21T04:50:50.649Z,85
2022-09-21T04:52:50.550Z,85
2022-09-21T04:54:50.533Z,85
2022-09-21T04:56:50.688Z,85
2022-09-21T04:58:50.595Z,85
2022-09-21T05:00:50.522Z,85
2022-09-21T05:02:50.412Z,85
2022-09-21T05:04:51.725Z,85
2022-09-21T05:06:50.876Z,85
2022-09-21T05:08:50.718Z,85
2022-09-21T05:10:50.655Z,85
2022-09-21T05:12:50.434Z,85
2022-09-21T05:14:50.477Z,85
2022-09-21T05:16:50.468Z,85
2022-09-21T05:18:50.330Z,85
2022-09-21T05:20:50.210Z,85
2022-09-21T05:22:50.204Z,85
2022-09-21T05:24:50.951Z,85
2022-09-21T05:26:51.005Z,85
2022-09-21T05:28:50.792Z,85
2022-09-21T05:31:18.895Z,85
2022-09-21T05:32:50.074Z,85
2022-09-21T05:34:50.403Z,85
2022-09-21T05:36:50.728Z,85
2022-09-21T05:38:50.587Z,86
2022-09-21T05:40:50.380Z,85
2022-09-21T05:42:50.342Z,85
2022-09-21T05:44:50.346Z,85
2022-09-21T05:46:56.891Z,86
2022-09-21T05:48:50.773Z,86
2022-09-21T05:50:50.526Z,86
2022-09-21T05:52:50.542Z,86
2022-09-21T05:54:50.554Z,86
2022-09-21T05:56:50.551Z,86
2022-09-21T05:58:50.265Z,86
2022-09-21T06:00:50.115Z,86
2022-09-21T06:02:50.201Z,86
2022-09-21T06:04:50.655Z,86
2022-09-21T06:06:51.008Z,86
2022-09-21T06:08:50.927Z,86
2022-09-21T06:10:50.721Z,86
2022-09-21T06:12:50.646Z,85
2022-09-21T06:14:50.527Z,85
2022-09-21T06:16:51.003Z,85
2022-09-21T06:18:50.860Z,85
2022-09-21T06:20:50.812Z,85
2022-09-21T06:22:50.828Z,85
2022-09-21T06:24:50.680Z,85
2022-09-21T06:26:50.925Z,85
2022-09-21T06:28:50.660Z,85
2022-09-21T06:30:50.787Z,85
2022-09-21T06:32:50.688Z,85
2022-09-21T06:34:50.344Z,85
2022-09-21T06:36:50.712Z,85
2022-09-21T06:38:50.711Z,85
2022-09-21T06:40:50.629Z,85
2022-09-21T06:42:50.564Z,85
2022-09-21T06:44:50.440Z,85
2022-09-21T06:46:50.461Z,86
2022-09-21T06:48:50.210Z,86
2022-09-21T06:50:50.126Z,86
2022-09-21T06:52:50.163Z,86
2022-09-21T06:54:50.805Z,86
2022-09-21T06:56:51.040Z,86
2022-09-21T06:58:50.850Z,86
2022-09-21T07:00:51.360Z,86
2022-09-21T07:02:50.306Z,86
2022-09-21T07:04:50.572Z,86
2022-09-21T07:06:50.868Z,86
2022-09-21T07:10:50.714Z,86
2022-09-21T07:12:50.400Z,86
2022-09-21T07:14:50.273Z,86
2022-09-21T07:16:50.565Z,85
2022-09-21T07:18:50.408Z,84
2022-09-21T07:20:50.280Z,84
2022-09-21T07:22:50.076Z,84
2022-09-21T07:24:51.012Z,84
2022-09-21T07:26:50.309Z,84
2022-09-21T07:28:50.308Z,84
2022-09-21T07:30:50.158Z,84
2022-09-21T07:32:50.992Z,84
2022-09-21T07:34:50.492Z,85
2022-09-21T07:36:50.966Z,85
2022-09-21T07:38:50.659Z,85
2022-09-21T07:40:50.928Z,85
2022-09-21T07:42:50.941Z,85
2022-09-21T07:45:05.325Z,85
2022-09-21T07:46:50.852Z,85
2022-09-21T07:48:50.706Z,85
2022-09-21T07:50:50.607Z,85
2022-09-21T07:52:50.610Z,85
2022-09-21T07:54:50.584Z,85
2022-09-21T07:56:50.716Z,85
2022-09-21T07:58:50.653Z,85
2022-09-21T08:00:50.826Z,85
2022-09-21T08:02:51.107Z,84
2022-09-21T08:04:50.469Z,84
2022-09-21T08:06:50.623Z,84
2022-09-21T08:08:58.673Z,84
2022-09-21T08:10:50.573Z,84
2022-09-21T08:12:50.550Z,84
2022-09-21T08:14:50.619Z,84
2022-09-21T08:16:51.213Z,84
2022-09-21T08:18:50.184Z,84
2022-09-21T08:20:51.024Z,84
2022-09-21T08:22:50.992Z,83
2022-09-21T08:24:50.839Z,82
2022-09-21T08:26:51.005Z,82
2022-09-21T08:28:51.009Z,82
2022-09-21T08:30:50.840Z,82
2022-09-21T08:32:52.517Z,82
2022-09-21T08:34:50.773Z,82
2022-09-21T08:36:56.389Z,83
2022-09-21T08:38:50.455Z,83
2022-09-21T08:40:50.343Z,83
2022-09-21T08:42:51.469Z,83
2022-09-21T08:44:50.287Z,82
2022-09-21T08:46:50.787Z,81
2022-09-21T08:48:50.978Z,81
2022-09-21T08:50:50.863Z,81
2022-09-21T08:52:50.946Z,81
2022-09-21T08:54:50.735Z,81
2022-09-21T08:57:06.592Z,81
2022-09-21T08:58:50.507Z,81
2022-09-21T09:00:50.711Z,81
2022-09-21T09:02:50.609Z,80
2022-09-21T09:04:50.145Z,80
2022-09-21T09:06:50.428Z,80
2022-09-21T09:08:50.370Z,80
2022-09-21T09:10:50.252Z,79
2022-09-21T09:12:50.084Z,79
2022-09-21T09:14:50.819Z,79
2022-09-21T09:16:51.030Z,79
2022-09-21T09:18:50.025Z,80
2022-09-21T09:20:50.919Z,80
2022-09-21T09:22:50.948Z,80
2022-09-21T09:24:50.884Z,80
2022-09-21T09:26:51.045Z,80
2022-09-21T09:28:53.785Z,80
2022-09-21T09:30:50.592Z,80
2022-09-21T09:32:50.653Z,80
2022-09-21T09:34:50.203Z,80
2022-09-21T09:37:00.583Z,80
2022-09-21T09:38:50.606Z,80
2022-09-21T09:40:50.546Z,80
2022-09-21T09:42:50.621Z,80
2022-09-21T09:44:50.720Z,80
2022-09-21T09:46:50.964Z,80
2022-09-21T09:48:55.053Z,80
2022-09-21T09:50:50.844Z,79
2022-09-21T09:52:50.731Z,79
2022-09-21T09:54:50.721Z,79
2022-09-21T09:56:51.257Z,79
2022-09-21T09:58:50.183Z,79
2022-09-21T10:00:50.166Z,79
2022-09-21T10:02:50.047Z,79
2022-09-21T10:04:50.266Z,79
2022-09-21T10:06:50.297Z,79
2022-09-21T10:08:50.523Z,79
2022-09-21T10:10:50.498Z,79
2022-09-21T10:12:50.424Z,78
2022-09-21T10:14:50.368Z,78
2022-09-21T10:16:50.060Z,78
2022-09-21T10:18:50.227Z,78
2022-09-21T10:20:50.135Z,78
2022-09-21T10:22:50.169Z,78
2022-09-21T10:24:50.893Z,78
2022-09-21T10:26:50.428Z,78
2022-09-21T10:28:50.331Z,78
2022-09-21T10:30:50.818Z,78
2022-09-21T10:32:50.874Z,78
2022-09-21T10:34:50.031Z,78
2022-09-21T10:36:50.300Z,76
2022-09-21T10:38:51.038Z,76
2022-09-21T10:40:51.484Z,74
2022-09-21T10:42:50.478Z,74
2022-09-21T10:44:50.567Z,76
2022-09-21T10:46:51.100Z,76
2022-09-21T10:48:50.928Z,77
2022-09-21T10:50:50.851Z,76
2022-09-21T10:52:50.818Z,76
2022-09-21T10:54:50.756Z,75
2022-09-21T10:56:50.781Z,75
2022-09-21T10:58:50.946Z,75
2022-09-21T11:00:50.768Z,75
2022-09-21T11:02:51.304Z,75
2022-09-21T11:04:50.790Z,74
2022-09-21T11:06:50.060Z,75
2022-09-21T11:08:50.893Z,75
2022-09-21T11:10:50.847Z,75
2022-09-21T11:12:50.678Z,73
2022-09-21T11:14:50.495Z,74
2022-09-21T11:16:50.657Z,74
2022-09-21T11:18:50.657Z,73
2022-09-21T11:20:50.767Z,73
2022-09-21T11:22:58.160Z,73
2022-09-21T11:24:50.177Z,73
2022-09-21T11:26:50.408Z,71
2022-09-21T11:28:50.349Z,69
2022-09-21T11:30:50.605Z,69
2022-09-21T11:32:50.291Z,69
2022-09-21T11:34:50.600Z,69
2022-09-21T11:36:50.987Z,70
2022-09-21T11:38:50.897Z,68
2022-09-21T11:40:50.729Z,68
2022-09-21T11:42:50.425Z,69
2022-09-21T11:44:50.134Z,68
2022-09-21T11:46:50.180Z,69
2022-09-21T11:48:50.989Z,68
2022-09-21T11:52:50.840Z,66
2022-09-21T11:54:50.833Z,66
2022-09-21T11:56:50.904Z,67
2022-09-21T11:58:53.712Z,67
2022-09-21T12:00:50.475Z,67
2022-09-21T12:04:50.242Z,62
2022-09-21T12:06:50.354Z,63
2022-09-21T12:08:50.344Z,63
2022-09-21T12:10:50.300Z,64
2022-09-21T12:12:50.426Z,63
2022-09-21T12:14:50.179Z,64
2022-09-21T12:16:50.953Z,64
2022-09-21T12:18:50.997Z,62
2022-09-21T12:20:51.020Z,62
2022-09-21T12:22:50.103Z,62
2022-09-21T12:24:50.911Z,62
2022-09-21T12:26:51.036Z,62
2022-09-21T12:28:50.926Z,62
2022-09-21T12:30:51.130Z,62
2022-09-21T12:32:50.107Z,63
2022-09-21T12:34:50.521Z,62
2022-09-21T12:36:50.604Z,62
2022-09-21T12:38:50.705Z,62
2022-09-21T12:40:50.737Z,61
2022-09-21T12:42:50.544Z,60
2022-09-21T12:44:50.401Z,60
2022-09-21T12:46:54.042Z,62
2022-09-21T12:48:50.935Z,60
2022-09-21T12:50:50.753Z,59
2022-09-21T12:52:50.620Z,58
2022-09-21T12:54:50.396Z,59
2022-09-21T12:56:50.736Z,59
2022-09-21T12:58:50.480Z,58
2022-09-21T13:00:50.840Z,60
2022-09-21T13:02:50.548Z,58
2022-09-21T13:04:50.157Z,59
2022-09-21T13:06:50.619Z,59
2022-09-21T13:10:55.759Z,58
2022-09-21T13:12:50.564Z,58
2022-09-21T13:14:50.372Z,60
2022-09-21T13:16:50.820Z,61
2022-09-21T13:18:50.836Z,61
2022-09-21T13:20:50.835Z,61
2022-09-21T13:22:50.874Z,60
2022-09-21T13:24:50.755Z,60
2022-09-21T13:26:50.935Z,58
2022-09-21T13:28:50.981Z,57
2022-09-21T13:30:50.434Z,58
2022-09-21T13:32:50.172Z,60
2022-09-21T13:34:50.482Z,60
2022-09-21T13:36:50.555Z,59
2022-09-21T13:38:50.496Z,58
2022-09-21T13:40:50.960Z,58
2022-09-21T13:42:50.995Z,58
2022-09-21T13:44:50.934Z,57
2022-09-21T13:46:50.181Z,56
2022-09-21T13:48:50.364Z,56
2022-09-21T13:50:50.344Z,57
2022-09-21T13:52:50.127Z,57
2022-09-21T13:54:50.058Z,57
2022-09-21T13:56:50.040Z,58
2022-09-21T13:58:50.865Z,56
2022-09-21T14:00:51.122Z,57
2022-09-21T14:02:50.536Z,57
2022-09-21T14:04:50.839Z,54
2022-09-21T14:06:51.072Z,56
2022-09-21T14:08:51.036Z,54
2022-09-21T14:10:50.786Z,54
2022-09-21T14:12:50.695Z,56
2022-09-21T14:14:50.519Z,56
2022-09-21T14:16:53.020Z,56
2022-09-21T14:18:51.076Z,55
2022-09-21T14:20:50.948Z,55
2022-09-21T14:22:51.063Z,56
2022-09-21T14:24:50.092Z,56
2022-09-21T14:26:50.188Z,56
2022-09-21T14:28:51.038Z,56
2022-09-21T14:30:50.868Z,56
2022-09-21T14:32:50.196Z,56
2022-09-21T14:34:50.557Z,57
2022-09-21T14:36:50.714Z,57
2022-09-21T14:38:55.268Z,57
2022-09-21T14:40:50.240Z,57
2022-09-21T14:42:50.194Z,58
2022-09-21T14:44:50.060Z,58
2022-09-21T14:46:50.385Z,58
2022-09-21T14:48:50.255Z,58
2022-09-21T14:50:50.260Z,58
2022-09-21T14:52:50.178Z,59
2022-09-21T14:54:50.948Z,59
2022-09-21T14:56:50.195Z,59
2022-09-21T14:58:50.052Z,59
2022-09-21T15:00:51.233Z,60
2022-09-21T15:02:50.146Z,60
2022-09-21T15:04:55.116Z,60
2022-09-21T15:06:50.372Z,60
2022-09-21T15:08:50.239Z,60
2022-09-21T15:10:55.942Z,61
2022-09-21T15:12:50.834Z,61
2022-09-21T15:14:50.586Z,61
2022-09-21T15:16:50.963Z,61
2022-09-21T15:18:50.774Z,61
2022-09-21T15:20:50.603Z,60
2022-09-21T15:22:50.613Z,60
2022-09-21T15:24:50.589Z,60
2022-09-21T15:26:50.616Z,60
2022-09-21T15:29:11.181Z,60
2022-09-21T15:30:50.287Z,60
2022-09-21T15:32:50.179Z,57
2022-09-21T15:34:50.802Z,57
2022-09-21T15:36:50.689Z,55
2022-09-21T15:38:50.523Z,53
2022-09-21T15:40:50.835Z,54
2022-09-21T15:42:50.925Z,55
2022-09-21T15:44:50.771Z,55
2022-09-21T15:46:51.205Z,55
2022-09-21T15:48:50.145Z,53
2022-09-21T15:50:50.953Z,52
2022-09-21T15:52:50.790Z,51
2022-09-21T15:54:50.585Z,52
2022-09-21T15:56:50.914Z,52
2022-09-21T15:58:50.673Z,53
2022-09-21T16:00:50.855Z,54
2022-09-21T16:02:50.626Z,54
2022-09-21T16:04:50.764Z,55
2022-09-21T16:06:50.734Z,55
2022-09-21T16:08:50.455Z,55
2022-09-21T16:10:50.352Z,55
2022-09-21T16:12:50.297Z,55
2022-09-21T16:14:50.247Z,55
2022-09-21T16:16:50.511Z,56
2022-09-21T16:18:50.535Z,55
2022-09-21T16:20:50.511Z,56
2022-09-21T16:22:50.392Z,56
2022-09-21T16:24:50.108Z,56
2022-09-21T16:26:50.292Z,56
2022-09-21T16:28:50.965Z,57
2022-09-21T16:30:50.894Z,57
2022-09-21T16:32:50.676Z,57
2022-09-21T16:34:50.873Z,57
2022-09-21T16:36:50.151Z,57
2022-09-21T16:38:50.801Z,57
2022-09-21T16:40:50.601Z,58
2022-09-21T16:42:50.524Z,58
2022-09-21T16:44:50.534Z,58
2022-09-21T16:46:51.114Z,58
2022-09-21T16:48:50.872Z,59
2022-09-21T16:50:50.586Z,59
2022-09-21T16:52:50.236Z,59
2022-09-21T16:54:50.083Z,60
2022-09-21T16:56:50.983Z,60
2022-09-21T16:58:50.866Z,60
2022-09-21T17:00:56.815Z,61
2022-09-21T17:02:50.921Z,61
2022-09-21T17:04:50.245Z,61
2022-09-21T17:06:50.448Z,61
2022-09-21T17:08:50.275Z,61
2022-09-21T17:10:50.175Z,61
2022-09-21T17:12:50.098Z,61
2022-09-21T17:14:50.976Z,61
2022-09-21T17:16:50.983Z,62
2022-09-21T17:18:50.757Z,62
2022-09-21T17:20:50.916Z,62
2022-09-21T17:22:50.627Z,62
2022-09-21T17:24:53.176Z,61
2022-09-21T17:26:50.508Z,62
2022-09-21T17:28:50.398Z,62
2022-09-21T17:30:50.387Z,62
2022-09-21T17:32:50.996Z,63
2022-09-21T17:34:50.455Z,63
2022-09-21T17:36:50.537Z,63
2022-09-21T17:38:50.435Z,63
2022-09-21T17:40:50.624Z,63
2022-09-21T17:42:50.473Z,63
2022-09-21T17:44:50.224Z,63
2022-09-21T17:46:50.981Z,64
2022-09-21T17:48:50.678Z,64
2022-09-21T17:50:50.292Z,64
2022-09-21T17:52:50.157Z,64
2022-09-21T17:54:50.934Z,64
2022-09-21T17:56:50.332Z,64
2022-09-21T17:58:50.220Z,64
2022-09-21T18:00:50.961Z,65
2022-09-21T18:02:51.516Z,68
2022-09-21T18:04:50.750Z,69
2022-09-21T18:06:50.659Z,69
2022-09-21T18:08:50.378Z,68
2022-09-21T18:10:50.045Z,68
2022-09-21T18:12:50.726Z,70
2022-09-21T18:14:50.545Z,69
2022-09-21T18:16:50.727Z,69
2022-09-21T18:18:50.451Z,69
2022-09-21T18:20:50.212Z,69
2022-09-21T18:22:50.988Z,69
2022-09-21T18:24:50.675Z,69
2022-09-21T18:26:50.690Z,69
2022-09-21T18:28:50.513Z,69
2022-09-21T18:30:50.668Z,70
2022-09-21T18:32:50.307Z,70
2022-09-21T18:34:50.464Z,70
2022-09-21T18:36:50.523Z,70
2022-09-21T18:38:50.497Z,70
2022-09-21T18:40:50.206Z,69
2022-09-21T18:42:50.999Z,69
2022-09-21T18:44:50.813Z,69
2022-09-21T18:46:51.276Z,71
2022-09-21T18:48:51.691Z,73
2022-09-21T18:50:50.444Z,73
2022-09-21T18:52:50.187Z,72
2022-09-21T18:54:50.957Z,71
2022-09-21T18:56:51.036Z,71
2022-09-21T18:58:50.728Z,71
2022-09-21T19:00:50.580Z,71
2022-09-21T19:03:19.591Z,71
2022-09-21T19:04:50.801Z,71
2022-09-21T19:06:50.863Z,71
2022-09-21T19:08:50.820Z,71
2022-09-21T19:10:50.661Z,72
2022-09-21T19:12:50.455Z,72
2022-09-21T19:14:50.345Z,72
2022-09-21T19:16:50.709Z,72
2022-09-21T19:18:50.527Z,72
2022-09-21T19:20:50.314Z,72
2022-09-21T19:22:50.083Z,72
2022-09-21T19:24:50.832Z,72
2022-09-21T19:26:50.925Z,72
2022-09-21T19:28:50.726Z,74
2022-09-21T19:30:51.081Z,73
2022-09-21T19:32:50.894Z,73
2022-09-21T19:34:50.303Z,73
2022-09-21T19:36:50.550Z,73
2022-09-21T19:38:50.268Z,73
2022-09-21T19:40:50.493Z,73
2022-09-21T19:42:50.401Z,73
2022-09-21T19:44:50.086Z,73
2022-09-21T19:46:50.063Z,73
2022-09-21T19:48:50.823Z,73
2022-09-21T19:50:50.562Z,73
2022-09-21T19:52:50.417Z,73
2022-09-21T19:54:50.164Z,73
2022-09-21T19:56:56.079Z,74
2022-09-21T19:58:50.894Z,74
2022-09-21T20:00:50.775Z,74
2022-09-21T20:02:50.927Z,74
2022-09-21T20:04:50.113Z,74
2022-09-21T20:06:50.291Z,74
2022-09-21T20:08:50.321Z,75
2022-09-21T20:10:51.004Z,75
2022-09-21T20:12:50.594Z,75
2022-09-21T20:14:50.474Z,75
2022-09-21T20:16:50.909Z,75
2022-09-21T20:18:50.519Z,75
2022-09-21T20:20:50.269Z,75
2022-09-21T20:22:50.023Z,75
2022-09-21T20:24:50.757Z,75
2022-09-21T20:26:50.939Z,75
2022-09-21T20:28:50.494Z,75
2022-09-21T20:30:50.590Z,75
2022-09-21T20:32:50.599Z,75
2022-09-21T20:34:50.809Z,75
2022-09-21T20:36:50.915Z,75
2022-09-21T20:38:50.601Z,75
2022-09-21T20:40:50.808Z,75
2022-09-21T20:42:50.766Z,75
2022-09-21T20:44:50.521Z,75
2022-09-21T20:46:50.515Z,75
2022-09-21T20:48:50.273Z,75
2022-09-21T20:50:51.023Z,75
2022-09-21T20:52:50.829Z,75
2022-09-21T20:54:50.720Z,75
2022-09-21T20:56:50.825Z,75
2022-09-21T20:58:50.630Z,75
2022-09-21T21:00:59.526Z,75
2022-09-21T21:02:50.402Z,76
2022-09-21T21:04:50.833Z,76
2022-09-21T21:06:50.939Z,76
2022-09-21T21:08:50.699Z,76
2022-09-21T21:10:50.651Z,76
2022-09-21T21:12:50.448Z,76
2022-09-21T21:14:50.349Z,76
2022-09-21T21:16:51.086Z,76
2022-09-21T21:18:50.723Z,76
2022-09-21T21:20:50.537Z,76
2022-09-21T21:22:50.423Z,76
2022-09-21T21:24:50.126Z,76
2022-09-21T21:27:03.774Z,76
2022-09-21T21:28:50.429Z,76
2022-09-21T21:30:50.264Z,76
2022-09-21T21:32:50.137Z,76
2022-09-21T21:34:50.241Z,76
2022-09-21T21:36:50.352Z,76
2022-09-21T21:38:50.044Z,76
2022-09-21T21:40:51.216Z,76
2022-09-21T21:42:50.092Z,76
2022-09-21T21:44:50.835Z,76
2022-09-21T21:46:50.763Z,76
2022-09-21T21:48:50.775Z,76
2022-09-21T21:50:50.582Z,76
2022-09-21T21:52:50.343Z,76
2022-09-21T21:54:50.342Z,76
2022-09-21T21:56:50.728Z,77
2022-09-21T21:58:50.495Z,77
2022-09-21T22:00:51.069Z,77
2022-09-21T22:02:51.093Z,77
2022-09-21T22:04:51.027Z,77
2022-09-21T22:06:50.940Z,77
2022-09-21T22:08:50.805Z,77
2022-09-21T22:10:50.580Z,77
2022-09-21T22:12:50.678Z,77
2022-09-21T22:14:50.619Z,77
2022-09-21T22:16:50.941Z,78
2022-09-21T22:18:50.860Z,77
2022-09-21T22:20:50.654Z,77
2022-09-21T22:22:50.588Z,77
2022-09-21T22:24:50.524Z,78
2022-09-21T22:26:50.689Z,78
2022-09-21T22:28:50.524Z,78
2022-09-21T22:30:50.273Z,78
2022-09-21T22:32:50.969Z,78
2022-09-21T22:34:50.276Z,78
2022-09-21T22:36:50.448Z,78
2022-09-21T22:38:50.266Z,78
2022-09-21T22:40:50.057Z,78
2022-09-21T22:42:50.706Z,78
2022-09-21T22:44:50.563Z,78
2022-09-21T22:46:50.581Z,78
2022-09-21T22:48:50.388Z,78
2022-09-21T22:50:50.028Z,78
2022-09-21T22:52:50.803Z,78
2022-09-21T22:54:50.716Z,78
2022-09-21T22:56:50.899Z,78
2022-09-21T22:58:50.899Z,78
2022-09-21T23:00:51.113Z,78
2022-09-21T23:02:50.806Z,78
2022-09-21T23:04:50.161Z,78
2022-09-21T23:06:50.508Z,78
2022-09-21T23:08:50.492Z,78
2022-09-21T23:10:50.318Z,78
2022-09-21T23:12:50.172Z,78
2022-09-21T23:14:50.178Z,78
2022-09-21T23:16:50.584Z,78
2022-09-21T23:18:50.449Z,78
2022-09-21T23:20:50.169Z,78
2022-09-21T23:22:52.520Z,78
2022-09-21T23:24:50.436Z,79
2022-09-21T23:26:50.677Z,78
2022-09-21T23:28:50.634Z,78
2022-09-21T23:30:50.361Z,79
2022-09-21T23:32:50.189Z,79
2022-09-21T23:34:50.608Z,79
2022-09-21T23:36:50.892Z,79
2022-09-21T23:38:50.882Z,79
2022-09-21T23:40:50.612Z,79
2022-09-21T23:42:50.502Z,79
2022-09-21T23:44:50.561Z,79
2022-09-21T23:46:51.347Z,79
2022-09-21T23:48:50.220Z,79
2022-09-21T23:50:50.868Z,79
2022-09-21T23:52:50.647Z,79
2022-09-21T23:54:50.677Z,79
2022-09-21T23:56:50.085Z,79
2022-09-21T23:58:50.952Z,79
